Petersburg, AK

5:41 AM AKST on November 23, 2014 (GMT -0900)
Johnson Petersburg | Change Station
CLOSE
Current Station
Airport
Location: Petersburg,
Elevation: 0 ft
Nearby Weather Stations

Elev 0 ft 56.82 °N, 132.97 °W | Updated 30 minutes ago

Overcast
Overcast
39 °F
Feels Like 39 °F
N
0
Wind Variable Wind from North

Today
High -- | Low -- °F
--% Chance of Precip.
Yesterday
High -- | Low -- °F
Precip. -- in
7:51 AM 3:27 PM
New Moon, 1% visible
Pressure 29.62 in
Visibility 6.0 miles
Clouds Scattered Clouds 800 ft
Mostly Cloudy 2300 ft
Overcast 3200 ft
Dew Point 37 °F
Humidity 93%
Rainfall 0.00 in
Snow Depth Not available.
UV 0 out of 12
Pollen Not available.
Air Quality Not available.
Flu Activity Not available.
METAR PAPG 231411Z AUTO 00000KT 6SM SCT008 BKN023 OVC032 04/03 A2962 RMK VIA PHONE LTNG DATA MISG

More Conditions Fewer Conditions

Pressure 29.62 in
Visibility 6.0 miles
Clouds Scattered Clouds 800 ft
Mostly Cloudy 2300 ft
Overcast 3200 ft
Dew Point 37 °F
Humidity 93%
Rainfall 0.00 in
Snow Depth Not available.
UV 0 out of 12
Pollen Not available.
Air Quality Not available.
Flu Activity Not available.
METAR PAPG 231411Z AUTO 00000KT 6SM SCT008 BKN023 OVC032 04/03 A2962 RMK VIA PHONE LTNG DATA MISG

More Conditions Fewer Conditions

10-Day Weather Forecast

Almanac

Astronomy

Nov. 23, 2014 Rise Set
Actual Time
Civil Twilight
Nautical Twilight
Astronomical Twilight
Moon
Length of Visible Light
Length of Day
Tomorrow will be .
, % of the Moon is Illuminated

Today's Extremes

State Highs State Lows

Community

WunderPhotos

Upload Photos

1,773,078 photos uploaded!

WunderBlogs® & News

Nearby

Air Quality

  Air Quality AQ Index Pollutant
Not available.

Snow Depth

Station Depth Elevation

Earthquake Activity

City Distance Mag. Time & Date
Minimum magnitude displayed is 2.5.

Coastal Water Temperatures

Place Temperature

Nearby Weather Stations